This is the latest recevied weather packets stored in our database for station/object K5YNC. If no packets are shown the sender has not sent any weather packets the latest 10 day(s).
| Time | Temp. | Humidity | Pressure | Rain* | Wind** | Luminosity | Snow |
|---|---|---|---|---|---|---|---|
| 1777390088 | 20° C | 89% | 1013.7 hPa | 0 mm | - | 348 W/m² | - |
| 1777389785 | 18.89° C | 90% | 1013.7 hPa | 0 mm | - | 621 W/m² | - |
| 1777389482 | 18.33° C | 91% | 1013.8 hPa | 0 mm | - | 492 W/m² | - |
| 1777389179 | 17.22° C | 91% | 1013.5 hPa | 0 mm | - | 178 W/m² | - |
| 1777388877 | 17.22° C | 92% | 1013.9 hPa | 0 mm | - | 220 W/m² | - |
| 1777388573 | 17.22° C | 92% | 1013.9 hPa | 0 mm | - | 71 W/m² | - |
| 1777388270 | 17.22° C | 92% | 1013.7 hPa | 0 mm | - | 87 W/m² | - |
| 1777387964 | 16.67° C | 92% | 1013.8 hPa | 0 mm | - | 77 W/m² | - |
| 1777387661 | 16.67° C | 91% | 1013.7 hPa | 0 mm | - | 57 W/m² | - |
| 1777387358 | 16.67° C | 92% | 1014 hPa | 13.72 mm | - | 36 W/m² | - |
| 1777387058 | 16.67° C | 91% | 1014.3 hPa | 36.58 mm | - | 23 W/m² | - |
| 1777386754 | 16.67° C | 91% | 1014.5 hPa | 62.48 mm | - | 12 W/m² | - |
| 1777386451 | 17.78° C | 90% | 1014 hPa | 61.21 mm | - | 4 W/m² | - |
| 1777386148 | 23.33° C | 88% | 1016.6 hPa | 12.7 mm | - | 1 W/m² | - |
| 1777385845 | 23.89° C | 89% | 1014.3 hPa | 0 mm | - | 1 W/m² | - |
| 1777385542 | 23.89° C | 89% | 1014.4 hPa | 0 mm | - | 1 W/m² | - |
| 1777385239 | 23.89° C | 89% | 1014.1 hPa | 0 mm | - | 8 W/m² | - |
| 1777384934 | 23.89° C | 89% | 1013.9 hPa | 0 mm | - | 1 W/m² | - |
| 1777384632 | 23.89° C | 88% | 1013.3 hPa | 0 mm | - | 6 W/m² | - |
| 1777384332 | 23.89° C | 88% | 1013.8 hPa | 0 mm | - | 4 W/m² | - |
| 1777384028 | 23.89° C | 88% | 1013.5 hPa | 0 mm | - | 3 W/m² | - |
| 1777383724 | 23.89° C | 88% | 1013.2 hPa | 0 mm | - | 5 W/m² | - |
| 1777383421 | 23.89° C | 88% | 1013.2 hPa | 0 mm | - | 6 W/m² | - |
| 1777383116 | 23.89° C | 88% | 1012.8 hPa | 0 mm | - | 7 W/m² | - |
| 1777382814 | 23.89° C | 88% | 1013 hPa | 0 mm | - | 6 W/m² | - |
* Rain latest hour (hover to see other rain measurements)
** Current wind speed in m/s (hover to see current wind gust speed)